createdAt,value
2017-07-23T00:02:01.839Z,100985
2017-07-23T00:04:30.014Z,100976
2017-07-23T00:06:58.190Z,100988
2017-07-23T00:09:26.374Z,100979
2017-07-23T00:11:54.534Z,100972
2017-07-23T00:14:22.705Z,100963
2017-07-23T00:16:50.878Z,100971
2017-07-23T00:19:19.041Z,100962
2017-07-23T00:21:47.201Z,100967
2017-07-23T00:24:16.160Z,100960
2017-07-23T00:26:44.336Z,100960
2017-07-23T00:29:12.507Z,100956
2017-07-23T00:31:40.679Z,100956
2017-07-23T00:34:08.858Z,100956
2017-07-23T00:36:37.014Z,100950
2017-07-23T00:39:05.283Z,100942
2017-07-23T00:41:33.434Z,100946
2017-07-23T00:44:01.613Z,100933
2017-07-23T00:46:29.805Z,100933
2017-07-23T00:48:57.985Z,100931
2017-07-23T00:51:26.160Z,100927
2017-07-23T00:53:54.360Z,100919
2017-07-23T00:56:22.522Z,100901
2017-07-23T00:58:50.696Z,100906
2017-07-23T01:01:18.915Z,100908
2017-07-23T01:03:47.856Z,100901
2017-07-23T01:06:16.012Z,100903
2017-07-23T01:08:44.192Z,100915
2017-07-23T01:11:12.351Z,100917
2017-07-23T01:13:40.524Z,100916
2017-07-23T01:16:08.698Z,100908
2017-07-23T01:18:36.877Z,100899
2017-07-23T01:21:05.052Z,100897
2017-07-23T01:23:33.235Z,100898
2017-07-23T01:26:01.395Z,100891
2017-07-23T01:28:29.570Z,100893
2017-07-23T01:30:57.768Z,100898
2017-07-23T01:33:25.914Z,100876
2017-07-23T01:35:54.079Z,100884
2017-07-23T01:38:22.261Z,100870
2017-07-23T01:40:50.443Z,100878
2017-07-23T01:43:18.598Z,100879
2017-07-23T01:45:46.787Z,100878
2017-07-23T01:48:14.951Z,100865
2017-07-23T01:50:43.132Z,100873
2017-07-23T01:53:11.309Z,100870
2017-07-23T01:55:39.469Z,100865
2017-07-23T01:58:08.403Z,100860
2017-07-23T02:00:36.596Z,100863
2017-07-23T02:03:04.755Z,100866
2017-07-23T02:05:32.913Z,100859
2017-07-23T02:08:01.117Z,100864
2017-07-23T02:10:29.277Z,100858
2017-07-23T02:12:57.429Z,100854
2017-07-23T02:15:25.607Z,100855
2017-07-23T02:17:53.777Z,100849
2017-07-23T02:20:21.952Z,100838
2017-07-23T02:22:50.150Z,100839
2017-07-23T02:25:18.298Z,100837
2017-07-23T02:27:46.450Z,100834
2017-07-23T02:30:15.429Z,100829
2017-07-23T02:32:43.578Z,100825
2017-07-23T02:35:11.760Z,100826
2017-07-23T02:37:39.943Z,100814
2017-07-23T02:40:08.116Z,100810
2017-07-23T02:42:36.265Z,100799
2017-07-23T02:45:04.459Z,100808
2017-07-23T02:47:32.636Z,100807
2017-07-23T02:50:00.819Z,100809
2017-07-23T02:52:29.025Z,100799
2017-07-23T02:54:57.200Z,100805
2017-07-23T02:57:25.373Z,100802
2017-07-23T02:59:54.342Z,100805
2017-07-23T03:02:22.490Z,100809
2017-07-23T03:04:50.657Z,100805
2017-07-23T03:07:18.854Z,100800
2017-07-23T03:09:47.014Z,100800
2017-07-23T03:12:15.167Z,100808
2017-07-23T03:14:43.373Z,100801
2017-07-23T03:17:11.552Z,100795
2017-07-23T03:19:39.706Z,100796
2017-07-23T03:22:07.886Z,100786
2017-07-23T03:24:36.038Z,100788
2017-07-23T03:27:04.209Z,100785
2017-07-23T03:29:32.408Z,100784
2017-07-23T03:32:00.585Z,100776
2017-07-23T03:34:28.766Z,100770
2017-07-23T03:36:56.965Z,100774
2017-07-23T03:39:25.906Z,100766
2017-07-23T03:41:54.078Z,100759
2017-07-23T03:44:22.704Z,100764
2017-07-23T03:46:50.858Z,100761
2017-07-23T03:49:19.029Z,100762
2017-07-23T03:51:47.257Z,100756
2017-07-23T03:54:16.197Z,100763
2017-07-23T03:56:44.372Z,100752
2017-07-23T03:59:12.568Z,100758
2017-07-23T04:01:40.717Z,100751
2017-07-23T04:04:08.879Z,100741
2017-07-23T04:06:37.080Z,100746
2017-07-23T04:09:05.238Z,100746
2017-07-23T04:11:33.412Z,100738
2017-07-23T04:14:01.613Z,100730
2017-07-23T04:16:29.790Z,100732
2017-07-23T04:18:58.183Z,100730
2017-07-23T04:21:26.397Z,100735
2017-07-23T04:23:54.573Z,100724
2017-07-23T04:26:22.744Z,100733
2017-07-23T04:28:50.950Z,100733
2017-07-23T04:31:19.111Z,100740
2017-07-23T04:33:47.278Z,100749
2017-07-23T04:36:15.465Z,100734
2017-07-23T04:38:43.622Z,100742
2017-07-23T04:41:11.774Z,100732
2017-07-23T04:43:40.718Z,100741
2017-07-23T04:46:08.890Z,100750
2017-07-23T04:48:37.069Z,100758
2017-07-23T04:51:05.288Z,100765
2017-07-23T04:53:34.226Z,100770
2017-07-23T04:56:02.400Z,100778
2017-07-23T04:58:30.605Z,100773
2017-07-23T05:00:58.794Z,100773
2017-07-23T05:03:26.954Z,100788
2017-07-23T05:05:55.148Z,100788
2017-07-23T05:08:24.070Z,100782
2017-07-23T05:10:52.241Z,100790
2017-07-23T05:13:20.442Z,100797
2017-07-23T05:15:48.610Z,100801
2017-07-23T05:18:16.762Z,100782
2017-07-23T05:20:44.950Z,100773
2017-07-23T05:23:13.128Z,100766
2017-07-23T05:25:41.286Z,100759
2017-07-23T05:28:09.474Z,100742
2017-07-23T05:30:37.630Z,100738
2017-07-23T05:33:05.800Z,100726
2017-07-23T05:35:34.765Z,100729
2017-07-23T05:38:02.944Z,100727
2017-07-23T05:40:31.110Z,100734
2017-07-23T05:42:59.286Z,100734
2017-07-23T05:45:27.440Z,100745
2017-07-23T05:47:55.610Z,100746
2017-07-23T05:50:23.789Z,100734
2017-07-23T05:52:51.960Z,100734
2017-07-23T05:55:20.133Z,100737
2017-07-23T05:57:48.335Z,100738
2017-07-23T06:00:16.488Z,100729
2017-07-23T06:02:44.661Z,100714
2017-07-23T06:05:12.855Z,100727
2017-07-23T06:07:42.641Z,100730
2017-07-23T06:10:11.594Z,100734
2017-07-23T06:12:39.835Z,100734
2017-07-23T06:15:07.991Z,100741
2017-07-23T06:17:36.154Z,100740
2017-07-23T06:20:04.357Z,100740
2017-07-23T06:22:32.532Z,100745
2017-07-23T06:25:00.690Z,100748
2017-07-23T06:27:28.903Z,100747
2017-07-23T06:29:57.849Z,100753
2017-07-23T06:32:26.010Z,100758
2017-07-23T06:34:54.212Z,100746
2017-07-23T06:37:22.371Z,100745
2017-07-23T06:39:50.556Z,100749
2017-07-23T06:42:18.756Z,100739
2017-07-23T06:44:46.905Z,100742
2017-07-23T06:47:15.088Z,100750
2017-07-23T06:49:43.285Z,100748
2017-07-23T06:52:11.456Z,100751
2017-07-23T06:54:39.629Z,100748
2017-07-23T06:57:07.825Z,100751
2017-07-23T06:59:36.785Z,100755
2017-07-23T07:02:04.953Z,100764
2017-07-23T07:04:33.373Z,100757
2017-07-23T07:07:02.316Z,100763
2017-07-23T07:09:30.493Z,100768
2017-07-23T07:11:58.692Z,100779
2017-07-23T07:14:26.869Z,100778
2017-07-23T07:16:55.036Z,100787
2017-07-23T07:19:23.234Z,100784
2017-07-23T07:21:52.175Z,100793
2017-07-23T07:24:20.339Z,100796
2017-07-23T07:26:48.589Z,100803
2017-07-23T07:29:17.529Z,100802
2017-07-23T07:31:45.695Z,100806
2017-07-23T07:34:13.901Z,100803
2017-07-23T07:36:42.064Z,100799
2017-07-23T07:39:10.226Z,100797
2017-07-23T07:41:38.420Z,100802
2017-07-23T07:44:06.573Z,100792
2017-07-23T07:46:34.748Z,100790
2017-07-23T07:49:02.929Z,100792
2017-07-23T07:51:31.082Z,100796
2017-07-23T07:53:59.262Z,100790
2017-07-23T07:56:27.450Z,100802
2017-07-23T07:58:55.614Z,100810
2017-07-23T08:01:23.774Z,100812
2017-07-23T08:03:51.972Z,100805
2017-07-23T08:06:20.141Z,100810
2017-07-23T08:08:48.319Z,100815
2017-07-23T08:11:16.511Z,100825
2017-07-23T08:13:44.698Z,100827
2017-07-23T08:16:12.869Z,100829
2017-07-23T08:18:41.049Z,100833
2017-07-23T08:21:09.203Z,100832
2017-07-23T08:23:37.361Z,100832
2017-07-23T08:26:05.905Z,100827
2017-07-23T08:28:34.838Z,100830
2017-07-23T08:31:03.015Z,100834
2017-07-23T08:33:31.249Z,100827
2017-07-23T08:36:00.165Z,100827
2017-07-23T08:38:28.326Z,100837
2017-07-23T08:40:56.517Z,100835
2017-07-23T08:43:24.665Z,100845
2017-07-23T08:45:53.597Z,100857
2017-07-23T08:48:21.766Z,100852
2017-07-23T08:50:49.932Z,100870
2017-07-23T08:53:18.082Z,100858
2017-07-23T08:55:46.281Z,100868
2017-07-23T08:58:14.430Z,100858
2017-07-23T09:00:42.600Z,100859
2017-07-23T09:03:11.565Z,100862
2017-07-23T09:05:39.710Z,100857
2017-07-23T09:08:07.858Z,100856
2017-07-23T09:10:36.039Z,100859
2017-07-23T09:13:04.189Z,100844
2017-07-23T09:15:33.101Z,100855
2017-07-23T09:18:01.319Z,100854
2017-07-23T09:20:29.482Z,100866
2017-07-23T09:22:57.648Z,100867
2017-07-23T09:25:25.836Z,100870
2017-07-23T09:27:54.005Z,100868
2017-07-23T09:30:22.171Z,100874
2017-07-23T09:32:50.343Z,100879
2017-07-23T09:35:18.492Z,100879
2017-07-23T09:37:46.649Z,100891
2017-07-23T09:40:14.823Z,100885
2017-07-23T09:42:43.738Z,100883
2017-07-23T09:45:11.890Z,100892
2017-07-23T09:47:41.789Z,100894
2017-07-23T09:50:09.956Z,100892
2017-07-23T09:52:38.106Z,100897
2017-07-23T09:55:06.297Z,100900
2017-07-23T09:57:34.460Z,100905
2017-07-23T10:00:02.622Z,100907
2017-07-23T10:02:30.813Z,100911
2017-07-23T10:04:58.949Z,100919
2017-07-23T10:07:27.108Z,100913
2017-07-23T10:09:56.046Z,100921
2017-07-23T10:12:24.212Z,100921
2017-07-23T10:14:52.377Z,100916
2017-07-23T10:17:20.553Z,100920
2017-07-23T10:19:48.715Z,100910
2017-07-23T10:22:16.901Z,100911
2017-07-23T10:24:45.094Z,100915
2017-07-23T10:27:13.262Z,100907
2017-07-23T10:29:41.410Z,100901
2017-07-23T10:32:09.583Z,100902
2017-07-23T10:34:37.766Z,100899
2017-07-23T10:37:05.935Z,100912
2017-07-23T10:39:34.140Z,100914
2017-07-23T10:42:02.306Z,100906
2017-07-23T10:44:30.468Z,100911
2017-07-23T10:46:58.643Z,100916
2017-07-23T10:49:26.782Z,100913
2017-07-23T10:51:55.699Z,100917
2017-07-23T10:54:23.872Z,100925
2017-07-23T10:56:52.040Z,100934
2017-07-23T10:59:20.229Z,100939
2017-07-23T11:01:48.434Z,100959
2017-07-23T11:04:16.616Z,100947
2017-07-23T11:06:44.758Z,100946
2017-07-23T11:09:12.953Z,100952
2017-07-23T11:11:41.122Z,100953
2017-07-23T11:14:09.277Z,100954
2017-07-23T11:16:37.454Z,100949
2017-07-23T11:19:05.599Z,100953
2017-07-23T11:21:34.534Z,100949
2017-07-23T11:24:02.709Z,100954
2017-07-23T11:26:30.883Z,100963
2017-07-23T11:28:59.049Z,100960
2017-07-23T11:31:27.232Z,100969
2017-07-23T11:33:55.381Z,100971
2017-07-23T11:36:23.544Z,100969
2017-07-23T11:38:51.734Z,100972
2017-07-23T11:41:19.905Z,100952
2017-07-23T11:43:48.077Z,100958
2017-07-23T11:46:16.281Z,100966
2017-07-23T11:48:44.450Z,100956
2017-07-23T11:51:12.606Z,100960
2017-07-23T11:53:40.809Z,100957
2017-07-23T11:56:08.976Z,100967
2017-07-23T11:58:37.149Z,100958
2017-07-23T12:01:05.321Z,100962
2017-07-23T12:03:33.503Z,100963
2017-07-23T12:06:01.659Z,100962
2017-07-23T12:08:29.853Z,100960
2017-07-23T12:10:57.999Z,100977
2017-07-23T12:13:26.163Z,100979
2017-07-23T12:15:54.362Z,100985
2017-07-23T12:18:22.535Z,100976
2017-07-23T12:20:50.722Z,100978
2017-07-23T12:23:18.901Z,100977
2017-07-23T12:25:47.069Z,100989
2017-07-23T12:28:15.217Z,100987
2017-07-23T12:30:43.403Z,100985
2017-07-23T12:33:11.550Z,100966
2017-07-23T12:35:40.466Z,100971
2017-07-23T12:38:08.654Z,100977
2017-07-23T12:40:36.816Z,100974
2017-07-23T12:43:04.968Z,100974
2017-07-23T12:45:33.172Z,100983
2017-07-23T12:48:01.317Z,100977
2017-07-23T12:50:29.470Z,100979
2017-07-23T12:52:58.435Z,100975
2017-07-23T12:55:26.596Z,100978
2017-07-23T12:57:54.769Z,100979
2017-07-23T13:00:22.950Z,100974
2017-07-23T13:02:51.094Z,100985
2017-07-23T13:05:19.242Z,100972
2017-07-23T13:07:48.190Z,100973
2017-07-23T13:10:16.361Z,100975
2017-07-23T13:12:44.534Z,100981
2017-07-23T13:15:12.710Z,100982
2017-07-23T13:17:40.873Z,100978
2017-07-23T13:20:09.036Z,100988
2017-07-23T13:22:37.230Z,100992
2017-07-23T13:25:05.406Z,101001
2017-07-23T13:27:33.555Z,100990
2017-07-23T13:30:01.740Z,100996
2017-07-23T13:32:29.908Z,100997
2017-07-23T13:34:58.054Z,101007
2017-07-23T13:37:27.009Z,101016
2017-07-23T13:39:55.157Z,101014
2017-07-23T13:42:23.302Z,101000
2017-07-23T13:44:52.242Z,101008
2017-07-23T13:47:20.413Z,101004
2017-07-23T13:49:48.577Z,101005
2017-07-23T13:52:16.777Z,101014
2017-07-23T13:54:44.930Z,101018
2017-07-23T13:57:13.087Z,101024
2017-07-23T13:59:41.285Z,101020
2017-07-23T14:02:09.436Z,101021
2017-07-23T14:04:37.600Z,101013
2017-07-23T14:07:05.792Z,101014
2017-07-23T14:09:33.938Z,101008
2017-07-23T14:12:02.864Z,101007
2017-07-23T14:14:31.041Z,101017
2017-07-23T14:16:59.217Z,101027
2017-07-23T14:19:27.397Z,101008
2017-07-23T14:21:55.583Z,101014
2017-07-23T14:24:23.753Z,101011
2017-07-23T14:26:51.919Z,101018
2017-07-23T14:29:20.109Z,101025
2017-07-23T14:31:48.266Z,101011
2017-07-23T14:34:16.437Z,101013
2017-07-23T14:36:44.633Z,101005
2017-07-23T14:39:12.782Z,101003
2017-07-23T14:41:40.933Z,100999
2017-07-23T14:44:09.114Z,101006
2017-07-23T14:46:37.287Z,101011
2017-07-23T14:49:05.460Z,101006
2017-07-23T14:51:33.657Z,101004
2017-07-23T14:54:01.825Z,101005
2017-07-23T14:56:29.977Z,101002
2017-07-23T14:58:58.189Z,101004
2017-07-23T15:01:26.341Z,101000
2017-07-23T15:03:54.486Z,101006
2017-07-23T15:06:23.458Z,101007
2017-07-23T15:08:51.606Z,100999
2017-07-23T15:11:19.778Z,101005
2017-07-23T15:13:48.003Z,100991
2017-07-23T15:16:16.941Z,101003
2017-07-23T15:18:45.108Z,101002
2017-07-23T15:21:13.281Z,100999
2017-07-23T15:23:41.442Z,100996
2017-07-23T15:26:09.610Z,101004
2017-07-23T15:28:37.812Z,101005
2017-07-23T15:31:05.977Z,101007
2017-07-23T15:33:34.149Z,101001
2017-07-23T15:36:02.323Z,101002
2017-07-23T15:38:30.484Z,101017
2017-07-23T15:40:58.640Z,101002
2017-07-23T15:43:28.021Z,100998
2017-07-23T15:45:56.196Z,101012
2017-07-23T15:48:25.399Z,101011
2017-07-23T15:50:53.610Z,101003
2017-07-23T15:53:21.783Z,101011
2017-07-23T15:55:50.715Z,101012
2017-07-23T15:58:18.893Z,101011
2017-07-23T16:00:47.038Z,101004
2017-07-23T16:03:15.216Z,101003
2017-07-23T16:05:43.394Z,101006
2017-07-23T16:08:11.561Z,101007
2017-07-23T16:10:39.733Z,101009
2017-07-23T16:13:07.909Z,101012
2017-07-23T16:15:36.069Z,101002
2017-07-23T16:18:04.980Z,101002
2017-07-23T16:20:33.150Z,101000
2017-07-23T16:23:01.324Z,101011
2017-07-23T16:25:29.492Z,101008
2017-07-23T16:27:57.686Z,101006
2017-07-23T16:30:25.836Z,101011
2017-07-23T16:32:54.004Z,101011
2017-07-23T16:35:22.964Z,101009
2017-07-23T16:37:51.136Z,101012
2017-07-23T16:40:19.298Z,101024
2017-07-23T16:42:47.478Z,101011
2017-07-23T16:45:15.629Z,101017
2017-07-23T16:47:43.798Z,101007
2017-07-23T16:50:11.971Z,101014
2017-07-23T16:52:40.122Z,101013
2017-07-23T16:55:08.294Z,101009
2017-07-23T16:57:37.253Z,101012
2017-07-23T17:00:05.417Z,101016
2017-07-23T17:02:33.593Z,101018
2017-07-23T17:05:01.774Z,101014
2017-07-23T17:07:29.947Z,101001
2017-07-23T17:09:58.124Z,101008
2017-07-23T17:12:26.298Z,101015
2017-07-23T17:14:54.447Z,101021
2017-07-23T17:17:22.624Z,101018
2017-07-23T17:19:50.821Z,101022
2017-07-23T17:22:18.977Z,101017
2017-07-23T17:24:47.967Z,101016
2017-07-23T17:27:16.164Z,101021
2017-07-23T17:29:44.328Z,101021
2017-07-23T17:32:12.478Z,101020
2017-07-23T17:34:40.661Z,101018
2017-07-23T17:37:08.838Z,101018
2017-07-23T17:39:36.990Z,101021
2017-07-23T17:42:05.205Z,101017
2017-07-23T17:44:33.368Z,101021
2017-07-23T17:47:01.546Z,101027
2017-07-23T17:49:29.736Z,101022
2017-07-23T17:51:57.898Z,101019
2017-07-23T17:54:26.064Z,101017
2017-07-23T17:56:54.234Z,101021
2017-07-23T17:59:22.410Z,101020
2017-07-23T18:01:50.583Z,101018
2017-07-23T18:04:18.762Z,101025
2017-07-23T18:06:46.949Z,101027
2017-07-23T18:09:15.112Z,101020
2017-07-23T18:11:43.323Z,101021
2017-07-23T18:14:11.476Z,101021
2017-07-23T18:16:39.650Z,101015
2017-07-23T18:19:07.848Z,101014
2017-07-23T18:21:36.003Z,101026
2017-07-23T18:24:04.172Z,101027
2017-07-23T18:26:32.373Z,101025
2017-07-23T18:29:00.517Z,101028
2017-07-23T18:31:28.693Z,101030
2017-07-23T18:33:56.897Z,101030
2017-07-23T18:36:25.851Z,101033
2017-07-23T18:38:54.044Z,101028
2017-07-23T18:41:22.251Z,101030
2017-07-23T18:43:51.305Z,101039
2017-07-23T18:46:19.584Z,101036
2017-07-23T18:48:47.953Z,101032
2017-07-23T18:51:16.385Z,101020
2017-07-23T18:53:44.776Z,101022
2017-07-23T18:56:13.203Z,101021
2017-07-23T18:58:41.630Z,101026
2017-07-23T19:01:10.144Z,101021
2017-07-23T19:03:38.644Z,101018
2017-07-23T19:06:07.874Z,101019
2017-07-23T19:08:36.338Z,101024
2017-07-23T19:11:04.852Z,101028
2017-07-23T19:13:33.303Z,101029
2017-07-23T19:16:02.514Z,101030
2017-07-23T19:18:31.026Z,101036
2017-07-23T19:20:59.505Z,101038
2017-07-23T19:23:27.950Z,101043
2017-07-23T19:25:57.230Z,101034
2017-07-23T19:28:26.469Z,101048
2017-07-23T19:30:54.887Z,101050
2017-07-23T19:33:23.394Z,101048
2017-07-23T19:35:52.643Z,101051
2017-07-23T19:38:21.146Z,101054
2017-07-23T19:40:49.662Z,101050
2017-07-23T19:43:18.909Z,101053
2017-07-23T19:45:47.407Z,101052
2017-07-23T19:48:15.938Z,101051
2017-07-23T19:50:44.444Z,101059
2017-07-23T19:53:12.929Z,101056
2017-07-23T19:55:41.451Z,101058
2017-07-23T19:58:09.856Z,101066
2017-07-23T20:00:38.235Z,101062
2017-07-23T20:03:06.741Z,101066
2017-07-23T20:05:35.180Z,101063
2017-07-23T20:08:03.589Z,101061
2017-07-23T20:10:32.767Z,101059
2017-07-23T20:13:01.200Z,101055
2017-07-23T20:15:29.629Z,101053
2017-07-23T20:17:57.995Z,101066
2017-07-23T20:20:26.330Z,101061
2017-07-23T20:22:54.618Z,101065
2017-07-23T20:25:23.638Z,101066
2017-07-23T20:27:51.818Z,101073
2017-07-23T20:30:19.984Z,101066
2017-07-23T20:32:48.162Z,101061
2017-07-23T20:35:16.314Z,101066
2017-07-23T20:37:44.488Z,101064
2017-07-23T20:40:12.677Z,101069
2017-07-23T20:42:40.826Z,101068
2017-07-23T20:45:09.762Z,101067
2017-07-23T20:47:37.965Z,101069
2017-07-23T20:50:06.133Z,101059
2017-07-23T20:52:34.291Z,101060
2017-07-23T20:55:02.488Z,101050
2017-07-23T20:57:30.640Z,101056
2017-07-23T20:59:58.785Z,101057
2017-07-23T21:02:26.958Z,101060
2017-07-23T21:04:55.126Z,101050
2017-07-23T21:07:24.058Z,101057
2017-07-23T21:09:52.234Z,101045
2017-07-23T21:12:20.409Z,101054
2017-07-23T21:14:48.574Z,101049
2017-07-23T21:17:16.776Z,101047
2017-07-23T21:19:44.922Z,101052
2017-07-23T21:22:13.070Z,101051
2017-07-23T21:24:41.267Z,101050
2017-07-23T21:27:09.415Z,101053
2017-07-23T21:29:38.373Z,101052
2017-07-23T21:32:06.549Z,101050
2017-07-23T21:34:34.705Z,101046
2017-07-23T21:37:02.873Z,101064
2017-07-23T21:39:31.072Z,101059
2017-07-23T21:41:59.245Z,101057
2017-07-23T21:44:27.420Z,101062
2017-07-23T21:46:55.620Z,101062
2017-07-23T21:49:24.568Z,101065
2017-07-23T21:51:52.737Z,101069
2017-07-23T21:54:20.929Z,101067
2017-07-23T21:56:49.072Z,101067
2017-07-23T21:59:17.219Z,101065
2017-07-23T22:01:46.177Z,101061
2017-07-23T22:04:14.330Z,101062
2017-07-23T22:06:42.487Z,101058
2017-07-23T22:09:10.682Z,101056
2017-07-23T22:11:38.858Z,101055
2017-07-23T22:14:07.026Z,101064
2017-07-23T22:16:35.206Z,101061
2017-07-23T22:19:03.376Z,101062
2017-07-23T22:21:31.550Z,101062
2017-07-23T22:23:59.749Z,101055
2017-07-23T22:26:27.912Z,101054
2017-07-23T22:28:56.058Z,101053
2017-07-23T22:31:24.241Z,101047
2017-07-23T22:33:52.421Z,101054
2017-07-23T22:36:20.565Z,101050
2017-07-23T22:38:48.766Z,101048
2017-07-23T22:41:16.931Z,101042
2017-07-23T22:43:45.093Z,101039
2017-07-23T22:46:13.285Z,101040
2017-07-23T22:48:41.442Z,101048
2017-07-23T22:51:09.590Z,101048
2017-07-23T22:53:38.548Z,101043
2017-07-23T22:56:06.713Z,101037
2017-07-23T22:58:34.857Z,101035
2017-07-23T23:01:03.049Z,101035
2017-07-23T23:03:31.194Z,101037
2017-07-23T23:05:59.367Z,101037
2017-07-23T23:08:28.321Z,101026
2017-07-23T23:10:56.471Z,101028
2017-07-23T23:13:24.615Z,101019
2017-07-23T23:15:52.924Z,101020
2017-07-23T23:18:21.067Z,101018
2017-07-23T23:20:49.210Z,101014
2017-07-23T23:23:17.378Z,101017
2017-07-23T23:25:45.529Z,101011
2017-07-23T23:28:13.676Z,101012
2017-07-23T23:30:41.874Z,101011
2017-07-23T23:33:10.069Z,101004
2017-07-23T23:35:38.217Z,101004
2017-07-23T23:38:06.394Z,100992
2017-07-23T23:40:35.250Z,100994
2017-07-23T23:43:03.446Z,101002
2017-07-23T23:45:31.644Z,101002
2017-07-23T23:47:59.832Z,100995
2017-07-23T23:50:27.982Z,100985
2017-07-23T23:52:56.156Z,100987
2017-07-23T23:55:24.328Z,100985
2017-07-23T23:57:52.479Z,100990
